createdAt,value
2023-01-20T00:04:51.943Z,98339.84
2023-01-20T00:09:56.677Z,98336.41
2023-01-20T00:15:00.505Z,98338.16
2023-01-20T00:20:04.244Z,98339.25
2023-01-20T00:25:10.560Z,98357.13
2023-01-20T00:30:14.988Z,98345.06
2023-01-20T00:35:18.446Z,98356.25
2023-01-20T00:40:23.246Z,98369.47
2023-01-20T00:45:26.638Z,98365.28
2023-01-20T00:50:30.044Z,98367.03
2023-01-20T00:55:35.144Z,98358.38
2023-01-20T01:00:38.671Z,98345.47
2023-01-20T01:05:42.319Z,98357.03
2023-01-20T01:10:47.120Z,98351.97
2023-01-20T01:15:51.198Z,98340.56
2023-01-20T01:20:54.585Z,98337.50
2023-01-20T01:25:59.404Z,98336.63
2023-01-20T01:31:03.320Z,98325.41
2023-01-20T01:36:08.641Z,98327.50
2023-01-20T01:41:14.490Z,98342.91
2023-01-20T01:46:17.826Z,98336.78
2023-01-20T01:51:26.353Z,98329.28
2023-01-20T01:56:32.583Z,98325.47
2023-01-20T02:01:40.333Z,98317.81
2023-01-20T02:06:47.336Z,98315.13
2023-01-20T02:11:54.802Z,98303.63
2023-01-20T02:17:06.392Z,98306.69
2023-01-20T02:22:25.732Z,98305.03
2023-01-20T02:27:44.593Z,98304.25
2023-01-20T02:32:57.962Z,98302.97
2023-01-20T02:38:12.614Z,98296.81
2023-01-20T02:43:24.060Z,98307.28
2023-01-20T02:48:35.381Z,98298.78
2023-01-20T02:53:44.912Z,98306.69
2023-01-20T02:58:51.727Z,98313.63
2023-01-20T03:04:00.039Z,98312.09
2023-01-20T03:09:07.934Z,98310.31
2023-01-20T03:14:14.035Z,98306.03
2023-01-20T03:19:20.585Z,98313.28
2023-01-20T03:24:28.383Z,98306.69
2023-01-20T03:29:32.722Z,98309.44
2023-01-20T03:34:40.715Z,98307.03
2023-01-20T03:39:44.216Z,98315.81
2023-01-20T03:45:01.030Z,98315.00
2023-01-20T03:50:14.599Z,98320.16
2023-01-20T03:55:22.390Z,98316.03
2023-01-20T04:00:29.673Z,98312.75
2023-01-20T04:05:36.276Z,98326.66
2023-01-20T04:10:44.292Z,98323.09
2023-01-20T04:15:48.049Z,98318.69
2023-01-20T04:20:56.475Z,98334.13
2023-01-20T04:26:00.163Z,98330.59
2023-01-20T04:31:04.013Z,98338.31
2023-01-20T04:36:09.430Z,98349.63
2023-01-20T04:41:13.725Z,98354.84
2023-01-20T04:46:17.611Z,98357.56
2023-01-20T04:51:22.745Z,98352.53
2023-01-20T04:56:26.150Z,98346.56
2023-01-20T05:01:29.550Z,98355.94
2023-01-20T05:06:35.446Z,98344.66
2023-01-20T05:11:38.811Z,98356.06
2023-01-20T05:16:42.969Z,98348.16
2023-01-20T05:21:47.766Z,98350.75
2023-01-20T05:26:51.112Z,98351.34
2023-01-20T05:31:54.805Z,98354.78
2023-01-20T05:36:59.582Z,98357.63
2023-01-20T05:42:03.322Z,98348.03
2023-01-20T05:47:06.730Z,98347.97
2023-01-20T05:52:11.785Z,98353.88
2023-01-20T05:57:18.297Z,98361.66
2023-01-20T06:02:22.039Z,98366.59
2023-01-20T06:07:26.948Z,98370.75
2023-01-20T06:12:30.366Z,98370.69
2023-01-20T06:17:33.808Z,98373.28
2023-01-20T06:22:38.807Z,98370.41
2023-01-20T06:27:42.349Z,98375.31
2023-01-20T06:32:47.636Z,98363.84
2023-01-20T06:37:52.430Z,98376.59
2023-01-20T06:42:55.760Z,98377.41
2023-01-20T06:47:59.481Z,98364.81
2023-01-20T06:53:04.593Z,98371.56
2023-01-20T06:58:08.192Z,98367.31
2023-01-20T07:03:14.045Z,98366.41
2023-01-20T07:08:18.905Z,98353.22
2023-01-20T07:13:22.264Z,98351.00
2023-01-20T07:18:25.638Z,98348.72
2023-01-20T07:23:32.516Z,98346.34
2023-01-20T07:28:37.293Z,98350.28
2023-01-20T07:33:41.120Z,98342.28
2023-01-20T07:38:48.921Z,98332.59
2023-01-20T07:43:53.843Z,98343.72
2023-01-20T07:48:58.074Z,98334.91
2023-01-20T07:54:04.485Z,98337.44
2023-01-20T07:59:07.869Z,98334.59
2023-01-20T08:04:13.203Z,98331.31
2023-01-20T08:09:18.307Z,98337.94
2023-01-20T08:14:21.815Z,98341.44
2023-01-20T08:19:25.583Z,98317.69
2023-01-20T08:24:30.785Z,98315.94
2023-01-20T08:29:34.996Z,98322.75
2023-01-20T08:34:38.688Z,98306.91
2023-01-20T08:39:43.745Z,98293.81
2023-01-20T08:44:47.705Z,98309.63
2023-01-20T08:49:52.307Z,98309.81
2023-01-20T08:54:58.772Z,98308.78
2023-01-20T09:00:02.592Z,98304.28
2023-01-20T09:05:08.787Z,98301.00
2023-01-20T09:10:15.182Z,98291.03
2023-01-20T09:15:20.716Z,98280.56
2023-01-20T09:20:24.789Z,98270.06
2023-01-20T09:25:29.615Z,98261.22
2023-01-20T09:30:33.470Z,98253.03
2023-01-20T09:35:36.935Z,98245.50
2023-01-20T09:41:07.209Z,98241.63
2023-01-20T09:46:18.981Z,98229.59
2023-01-20T09:51:49.879Z,98217.91
2023-01-20T09:56:57.891Z,98216.44
2023-01-20T10:02:06.769Z,98211.47
2023-01-20T10:07:14.508Z,98213.25
2023-01-20T10:12:23.442Z,98201.06
2023-01-20T10:17:34.092Z,98200.94
2023-01-20T10:22:44.299Z,98190.41
2023-01-20T10:27:55.100Z,98184.88
2023-01-20T10:33:03.985Z,98166.03
2023-01-20T10:38:09.493Z,98150.75
2023-01-20T10:43:17.081Z,98137.53
2023-01-20T10:48:37.137Z,98127.81
2023-01-20T10:53:51.172Z,98121.34
2023-01-20T10:58:57.903Z,98107.69
2023-01-20T11:04:01.295Z,98106.31
2023-01-20T11:09:21.152Z,98094.09
2023-01-20T11:14:26.254Z,98083.97
2023-01-20T11:19:46.440Z,98080.91
2023-01-20T11:24:54.787Z,98079.09
2023-01-20T11:30:04.669Z,98071.38
2023-01-20T11:35:21.997Z,98068.81
2023-01-20T11:40:29.631Z,98066.75
2023-01-20T11:45:36.518Z,98046.28
2023-01-20T11:50:41.467Z,98052.03
2023-01-20T11:55:53.748Z,98045.59
2023-01-20T12:01:07.150Z,98047.06
2023-01-20T12:06:16.701Z,98061.34
2023-01-20T12:11:25.846Z,98055.47
2023-01-20T12:16:34.604Z,98049.69
2023-01-20T12:21:44.099Z,98062.41
2023-01-20T12:26:48.360Z,98057.69
2023-01-20T12:31:54.549Z,98051.72
2023-01-20T12:37:20.692Z,98039.03
2023-01-20T12:42:59.415Z,98041.38
2023-01-20T12:48:21.891Z,98055.22
2023-01-20T12:53:41.303Z,98039.25
2023-01-20T12:58:54.003Z,98034.47
2023-01-20T13:04:38.887Z,98033.69
2023-01-20T13:10:10.660Z,98026.09
2023-01-20T13:15:28.483Z,98038.72
2023-01-20T13:20:32.559Z,98023.72
2023-01-20T13:25:37.846Z,98014.94
2023-01-20T13:30:48.100Z,98016.50
2023-01-20T13:35:52.424Z,98005.13
2023-01-20T13:41:03.293Z,98017.03
2023-01-20T13:46:39.294Z,98002.97
2023-01-20T13:51:48.140Z,98000.84
2023-01-20T13:56:54.295Z,98001.03
2023-01-20T14:01:57.791Z,98010.03
2023-01-20T14:07:04.601Z,97995.53
2023-01-20T14:12:11.091Z,97999.00
2023-01-20T14:17:18.318Z,97990.31
2023-01-20T14:22:25.002Z,97986.28
2023-01-20T14:27:32.298Z,97986.91
2023-01-20T14:32:38.414Z,97977.56
2023-01-20T14:37:42.319Z,97978.38
2023-01-20T14:42:56.794Z,97990.59
2023-01-20T14:48:03.439Z,98002.69
2023-01-20T14:53:07.472Z,98014.81
2023-01-20T14:58:17.760Z,98026.38
2023-01-20T15:03:25.027Z,98056.75
2023-01-20T15:08:56.891Z,98076.53
2023-01-20T15:14:11.924Z,98059.03
2023-01-20T15:19:29.671Z,98059.19
2023-01-20T15:24:35.531Z,98047.28
2023-01-20T15:29:40.825Z,98050.78
2023-01-20T15:34:44.189Z,98055.72
2023-01-20T15:39:48.126Z,98051.53
2023-01-20T15:44:55.125Z,98058.50
2023-01-20T15:49:58.565Z,98078.66
2023-01-20T15:55:02.284Z,98059.41
2023-01-20T16:00:18.004Z,98072.91
2023-01-20T16:05:22.257Z,98076.78
2023-01-20T16:10:25.646Z,98063.06
2023-01-20T16:15:30.465Z,98054.69
2023-01-20T16:20:36.718Z,98065.84
2023-01-20T16:25:40.729Z,98068.47
2023-01-20T16:30:46.031Z,98076.47
2023-01-20T16:35:52.065Z,98053.19
2023-01-20T16:41:04.149Z,98043.22
2023-01-20T16:46:14.950Z,98031.97
2023-01-20T16:51:20.741Z,98046.16
2023-01-20T16:56:26.065Z,98050.47
2023-01-20T17:01:32.184Z,98058.03
2023-01-20T17:06:36.881Z,98060.47
2023-01-20T17:11:41.463Z,98048.41
2023-01-20T17:16:46.790Z,98059.03
2023-01-20T17:21:50.366Z,98068.59
2023-01-20T17:26:53.811Z,98051.38
2023-01-20T17:31:58.705Z,98036.91
2023-01-20T17:37:03.643Z,98046.41
2023-01-20T17:42:07.640Z,98072.63
2023-01-20T17:47:12.739Z,98071.16
2023-01-20T17:52:20.139Z,98072.91
2023-01-20T17:57:25.064Z,98081.75
2023-01-20T18:02:31.254Z,98091.28
2023-01-20T18:07:35.129Z,98099.28
2023-01-20T18:12:38.985Z,98110.63
2023-01-20T18:17:44.268Z,98103.78
2023-01-20T18:22:51.420Z,98095.13
2023-01-20T18:27:55.329Z,98102.13
2023-01-20T18:33:01.522Z,98113.47
2023-01-20T18:38:05.015Z,98118.69
2023-01-20T18:43:08.511Z,98116.06
2023-01-20T18:48:13.784Z,98118.56
2023-01-20T18:53:17.607Z,98109.06
2023-01-20T18:58:21.217Z,98115.84
2023-01-20T19:03:26.837Z,98105.53
2023-01-20T19:08:30.840Z,98104.66
2023-01-20T19:13:34.640Z,98095.09
2023-01-20T19:18:39.930Z,98089.97
2023-01-20T19:23:44.434Z,98087.38
2023-01-20T19:28:50.294Z,98083.09
2023-01-20T19:33:55.459Z,98091.56
2023-01-20T19:39:01.046Z,98089.16
2023-01-20T19:44:06.910Z,98102.13
2023-01-20T19:49:13.119Z,98132.44
2023-01-20T19:54:16.907Z,98140.25
2023-01-20T19:59:20.563Z,98113.38
2023-01-20T20:04:25.503Z,98119.41
2023-01-20T20:09:29.306Z,98119.63
2023-01-20T20:14:33.457Z,98135.41
2023-01-20T20:19:39.071Z,98143.22
2023-01-20T20:24:42.895Z,98155.38
2023-01-20T20:29:46.840Z,98183.34
2023-01-20T20:34:51.839Z,98166.91
2023-01-20T20:39:55.252Z,98176.59
2023-01-20T20:44:58.660Z,98200.13
2023-01-20T20:50:03.469Z,98194.78
2023-01-20T20:55:07.899Z,98205.59
2023-01-20T21:00:12.811Z,98213.38
2023-01-20T21:05:19.083Z,98219.41
2023-01-20T21:10:23.278Z,98235.09
2023-01-20T21:15:26.716Z,98251.63
2023-01-20T21:20:33.710Z,98248.91
2023-01-20T21:25:37.132Z,98254.97
2023-01-20T21:30:40.483Z,98259.31
2023-01-20T21:35:45.782Z,98278.41
2023-01-20T21:41:01.376Z,98331.41
2023-01-20T21:46:05.062Z,98389.22
2023-01-20T21:51:28.886Z,98387.66
2023-01-20T21:56:32.622Z,98379.13
2023-01-20T22:01:36.452Z,98380.88
2023-01-20T22:06:43.090Z,98366.19
2023-01-20T22:11:46.649Z,98376.56
2023-01-20T22:16:50.062Z,98367.94
2023-01-20T22:21:56.803Z,98365.34
2023-01-20T22:27:00.487Z,98372.25
2023-01-20T22:32:05.050Z,98364.47
2023-01-20T22:37:10.208Z,98378.28
2023-01-20T22:42:13.570Z,98398.16
2023-01-20T22:47:16.993Z,98406.72
2023-01-20T22:52:21.850Z,98421.41
2023-01-20T22:57:25.251Z,98421.38
2023-01-20T23:02:28.952Z,98411.88
2023-01-20T23:07:35.407Z,98409.28
2023-01-20T23:12:38.870Z,98413.59
2023-01-20T23:17:42.864Z,98419.63
2023-01-20T23:22:47.954Z,98425.63
2023-01-20T23:27:51.356Z,98431.72
2023-01-20T23:32:54.854Z,98442.88
2023-01-20T23:37:59.618Z,98456.69
2023-01-20T23:43:03.531Z,98465.41
2023-01-20T23:48:07.557Z,98472.16
2023-01-20T23:53:12.609Z,98498.00
2023-01-20T23:58:16.636Z,98506.59
